createdAt,value
2022-09-07T00:03:29.208Z,45.00
2022-09-07T00:08:34.470Z,45.90
2022-09-07T00:13:40.307Z,46.10
2022-09-07T00:18:46.286Z,46.00
2022-09-07T00:23:51.892Z,46.20
2022-09-07T00:28:58.386Z,46.90
2022-09-07T00:34:02.899Z,45.90
2022-09-07T00:39:07.579Z,45.90
2022-09-07T00:45:01.746Z,46.20
2022-09-07T00:50:09.371Z,46.60
2022-09-07T00:55:17.021Z,46.50
2022-09-07T01:00:20.370Z,46.40
2022-09-07T01:05:28.662Z,46.70
2022-09-07T01:10:33.678Z,46.80
2022-09-07T01:15:46.653Z,46.80
2022-09-07T01:21:25.498Z,46.90
2022-09-07T01:27:00.827Z,46.80
2022-09-07T01:32:13.174Z,46.80
2022-09-07T01:37:22.219Z,46.60
2022-09-07T01:42:32.754Z,46.70
2022-09-07T01:47:42.362Z,46.70
2022-09-07T01:52:51.955Z,47.20
2022-09-07T01:58:00.643Z,47.70
2022-09-07T02:03:12.084Z,48.30
2022-09-07T02:08:20.305Z,48.20
2022-09-07T02:13:29.501Z,48.40
2022-09-07T02:18:39.556Z,49.10
2022-09-07T02:23:50.100Z,49.20
2022-09-07T02:28:53.579Z,49.50
2022-09-07T02:33:58.325Z,50.10
2022-09-07T02:39:01.916Z,50.20
2022-09-07T02:44:09.272Z,50.30
2022-09-07T02:49:26.671Z,49.90
2022-09-07T02:54:42.901Z,50.40
2022-09-07T02:59:56.846Z,50.10
2022-09-07T03:05:06.892Z,51.30
2022-09-07T03:10:11.142Z,50.10
2022-09-07T03:15:16.772Z,50.10
2022-09-07T03:20:23.540Z,50.00
2022-09-07T03:25:27.186Z,50.10
2022-09-07T03:30:30.679Z,51.10
2022-09-07T03:35:35.635Z,50.10
2022-09-07T03:40:39.086Z,50.00
2022-09-07T03:45:43.137Z,50.50
2022-09-07T03:50:56.924Z,50.50
2022-09-07T03:56:02.555Z,50.70
2022-09-07T04:01:08.252Z,50.60
2022-09-07T04:06:13.513Z,51.50
2022-09-07T04:11:19.413Z,52.90
2022-09-07T04:16:24.663Z,52.00
2022-09-07T04:21:33.090Z,51.90
2022-09-07T04:26:37.158Z,51.60
2022-09-07T04:31:41.003Z,52.00
2022-09-07T04:36:45.969Z,51.90
2022-09-07T04:41:49.377Z,52.40
2022-09-07T04:46:53.016Z,52.70
2022-09-07T04:51:57.671Z,52.70
2022-09-07T04:57:00.998Z,52.70
2022-09-07T05:02:04.755Z,52.50
2022-09-07T05:07:09.444Z,52.40
2022-09-07T05:12:13.201Z,52.30
2022-09-07T05:17:16.560Z,52.90
2022-09-07T05:22:22.400Z,52.90
2022-09-07T05:27:25.844Z,52.40
2022-09-07T05:32:29.459Z,52.40
2022-09-07T05:37:34.253Z,53.60
2022-09-07T05:42:37.764Z,52.80
2022-09-07T05:47:41.671Z,52.50
2022-09-07T05:52:47.974Z,51.60
2022-09-07T05:57:51.443Z,51.70
2022-09-07T06:02:54.845Z,51.30
2022-09-07T06:07:59.559Z,51.20
2022-09-07T06:13:03.027Z,51.20
2022-09-07T06:18:06.423Z,51.00
2022-09-07T06:23:11.102Z,50.80
2022-09-07T06:28:14.655Z,50.90
2022-09-07T06:33:21.427Z,51.20
2022-09-07T06:38:32.020Z,50.80
2022-09-07T06:43:36.083Z,50.40
2022-09-07T06:48:43.855Z,50.20
2022-09-07T06:53:50.279Z,49.90
2022-09-07T06:58:55.140Z,50.60
2022-09-07T07:03:58.689Z,49.90
2022-09-07T07:09:04.561Z,49.60
2022-09-07T07:14:08.267Z,50.40
2022-09-07T07:19:12.156Z,50.00
2022-09-07T07:24:16.831Z,49.80
2022-09-07T07:29:21.905Z,49.20
2022-09-07T07:34:26.496Z,50.20
2022-09-07T07:50:35.288Z,49.70
2022-09-07T07:55:43.850Z,49.50
2022-09-07T08:00:56.329Z,49.90
2022-09-07T08:06:08.075Z,49.60
2022-09-07T08:11:14.004Z,49.70
2022-09-07T08:16:19.760Z,49.30
2022-09-07T08:21:23.690Z,49.80
2022-09-07T08:26:29.081Z,49.00
2022-09-07T08:31:33.058Z,49.50
2022-09-07T08:36:38.911Z,49.60
2022-09-07T08:42:10.329Z,49.50
2022-09-07T08:47:22.239Z,49.60
2022-09-07T08:52:27.786Z,49.40
2022-09-07T08:57:36.281Z,49.50
2022-09-07T09:02:43.982Z,49.20
2022-09-07T09:07:58.506Z,48.90
2022-09-07T09:13:07.427Z,48.80
2022-09-07T09:18:26.905Z,49.60
2022-09-07T09:23:35.929Z,47.60
2022-09-07T09:28:41.199Z,48.40
2022-09-07T09:33:44.910Z,47.70
2022-09-07T09:38:48.604Z,47.20
2022-09-07T09:43:57.284Z,46.90
2022-09-07T09:49:02.539Z,47.50
2022-09-07T09:54:15.618Z,47.10
2022-09-07T10:04:51.081Z,46.60
2022-09-07T10:09:56.248Z,46.20
2022-09-07T10:15:02.319Z,45.80
2022-09-07T10:20:31.320Z,44.10
2022-09-07T10:25:36.683Z,45.20
2022-09-07T10:31:08.081Z,43.80
2022-09-07T10:36:25.966Z,43.20
2022-09-07T10:41:41.454Z,42.70
2022-09-07T10:46:57.029Z,43.30
2022-09-07T10:52:15.627Z,42.60
2022-09-07T10:57:39.085Z,42.50
2022-09-07T11:09:15.884Z,42.30
2022-09-07T11:14:13.072Z,42.40
2022-09-07T11:19:38.983Z,41.60
2022-09-07T11:25:29.089Z,40.60
2022-09-07T11:30:23.671Z,40.50
2022-09-07T11:35:37.876Z,40.80
2022-09-07T11:40:56.527Z,40.40
2022-09-07T11:46:05.019Z,40.40
2022-09-07T11:51:16.949Z,40.30
2022-09-07T11:56:27.525Z,41.10
2022-09-07T12:01:41.283Z,39.50
2022-09-07T12:07:23.724Z,39.10
2022-09-07T12:12:44.747Z,39.10
2022-09-07T12:18:02.071Z,38.30
2022-09-07T12:23:19.068Z,38.70
2022-09-07T12:28:55.895Z,38.80
2022-09-07T12:34:29.245Z,38.60
2022-09-07T12:39:35.090Z,38.10
2022-09-07T12:44:40.135Z,37.50
2022-09-07T12:50:10.150Z,37.40
2022-09-07T12:56:15.541Z,37.10
2022-09-07T13:01:13.197Z,37.40
2022-09-07T13:11:55.780Z,37.30
2022-09-07T13:17:41.629Z,36.10
2022-09-07T13:23:20.794Z,35.90
2022-09-07T13:28:32.521Z,35.50
2022-09-07T13:33:48.378Z,35.80
2022-09-07T13:38:52.618Z,35.90
2022-09-07T13:44:01.889Z,35.80
2022-09-07T13:49:18.323Z,35.70
2022-09-07T13:54:28.848Z,35.20
2022-09-07T13:59:36.309Z,35.30
2022-09-07T14:04:43.397Z,34.20
2022-09-07T14:09:48.932Z,34.30
2022-09-07T14:15:20.393Z,33.90
2022-09-07T14:20:25.396Z,32.70
2022-09-07T14:25:29.514Z,33.20
2022-09-07T14:30:34.735Z,33.30
2022-09-07T14:35:40.524Z,33.00
2022-09-07T14:40:45.192Z,33.60
2022-09-07T14:45:51.384Z,33.20
2022-09-07T14:51:18.519Z,32.70
2022-09-07T14:56:21.902Z,31.70
2022-09-07T15:01:43.607Z,30.10
2022-09-07T15:07:03.267Z,29.50
2022-09-07T15:12:27.141Z,28.60
2022-09-07T15:17:45.279Z,27.40
2022-09-07T15:22:48.748Z,27.50
2022-09-07T15:27:52.163Z,27.80
2022-09-07T15:32:57.732Z,26.40
2022-09-07T15:43:32.350Z,25.90
2022-09-07T15:48:50.592Z,26.00
2022-09-07T15:59:17.305Z,27.00
2022-09-07T16:04:24.034Z,27.80
2022-09-07T16:09:28.201Z,28.90
2022-09-07T16:14:35.045Z,29.50
2022-09-07T16:19:41.432Z,31.60
2022-09-07T16:24:44.776Z,30.80
2022-09-07T16:29:48.370Z,30.60
2022-09-07T16:34:53.163Z,31.20
2022-09-07T16:39:56.716Z,32.10
2022-09-07T16:46:02.714Z,33.20
2022-09-07T16:50:24.724Z,33.80
2022-09-07T16:55:28.009Z,34.60
2022-09-07T17:00:33.993Z,34.30
2022-09-07T17:05:41.321Z,34.90
2022-09-07T17:10:45.295Z,36.30
2022-09-07T17:15:50.767Z,36.40
2022-09-07T17:20:58.740Z,37.40
2022-09-07T17:26:06.428Z,37.70
2022-09-07T17:32:23.985Z,37.40
2022-09-07T17:36:39.274Z,39.20
2022-09-07T17:41:42.650Z,40.00
2022-09-07T17:46:47.688Z,38.90
2022-09-07T17:51:52.434Z,40.00
2022-09-07T17:56:55.800Z,40.80
2022-09-07T18:01:59.553Z,40.70
2022-09-07T18:07:04.634Z,41.10
2022-09-07T18:12:08.239Z,41.30
2022-09-07T18:17:12.507Z,41.40
2022-09-07T18:22:17.486Z,41.30
2022-09-07T18:27:25.514Z,41.20
2022-09-07T18:32:29.154Z,41.40
2022-09-07T18:37:33.931Z,41.80
2022-09-07T18:42:37.364Z,42.70
2022-09-07T18:47:45.413Z,43.20
2022-09-07T18:52:53.563Z,43.50
2022-09-07T18:57:57.377Z,44.10
2022-09-07T19:03:00.948Z,43.10
2022-09-07T19:08:05.739Z,43.70
2022-09-07T19:13:09.183Z,44.10
2022-09-07T19:18:12.577Z,44.50
2022-09-07T19:23:17.550Z,46.40
2022-09-07T19:28:21.680Z,46.20
2022-09-07T19:33:25.278Z,45.90
2022-09-07T19:38:30.206Z,46.10
2022-09-07T19:43:35.273Z,46.20
2022-09-07T19:48:38.988Z,46.50
2022-09-07T19:53:45.887Z,46.70
2022-09-07T19:58:50.746Z,47.40
2022-09-07T20:03:58.787Z,47.10
2022-09-07T20:09:03.680Z,47.40
2022-09-07T20:14:07.796Z,47.70
2022-09-07T20:19:14.551Z,48.00
2022-09-07T20:24:22.528Z,48.10
2022-09-07T20:29:28.482Z,48.30
2022-09-07T20:34:32.915Z,49.00
2022-09-07T20:39:39.607Z,49.70
2022-09-07T20:44:43.184Z,50.00
2022-09-07T20:49:46.951Z,49.80
2022-09-07T20:54:51.897Z,49.70
2022-09-07T20:59:55.447Z,49.90
2022-09-07T21:04:58.890Z,50.00
2022-09-07T21:10:06.797Z,51.20
2022-09-07T21:15:11.340Z,51.40
2022-09-07T21:20:15.871Z,51.20
2022-09-07T21:25:20.993Z,51.40
2022-09-07T21:30:24.633Z,51.60
2022-09-07T21:35:31.124Z,51.60
2022-09-07T21:40:35.794Z,51.80
2022-09-07T21:45:39.101Z,51.70
2022-09-07T21:50:42.418Z,52.40
2022-09-07T21:55:56.016Z,52.70
2022-09-07T22:01:01.316Z,53.00
2022-09-07T22:06:07.215Z,52.90
2022-09-07T22:11:14.101Z,53.90
2022-09-07T22:16:18.310Z,53.50
2022-09-07T22:21:24.042Z,53.40
2022-09-07T22:26:30.776Z,53.70
2022-09-07T22:31:36.626Z,53.80
2022-09-07T22:36:42.763Z,53.60
2022-09-07T22:41:49.081Z,53.90
2022-09-07T22:46:52.665Z,55.50
2022-09-07T22:51:55.921Z,55.10
2022-09-07T22:57:00.582Z,55.30
2022-09-07T23:02:03.974Z,56.00
2022-09-07T23:07:07.751Z,56.60
2022-09-07T23:12:12.574Z,55.70
2022-09-07T23:17:15.870Z,56.10
2022-09-07T23:22:19.423Z,56.30
2022-09-07T23:27:24.113Z,56.20
2022-09-07T23:32:27.743Z,56.60
2022-09-07T23:37:31.075Z,56.70
2022-09-07T23:42:35.999Z,56.80
2022-09-07T23:47:39.574Z,56.80
2022-09-07T23:52:42.894Z,56.70
2022-09-07T23:57:48.577Z,57.10
